Time;durP1;ratioP1;P1;durP2;ratioP2;P2;SDS_P1;SDS_P2;PMS_P1;PMS_P2;Temp;Humidity;BMP_temperature;BMP_pressure;BME280_temperature;BME280_humidity;BME280_pressure;Samples;Min_cycle;Max_cycle;Signal;HPM_P1;HPM_P2
2023/12/01 00:01:19;;;;;;;15.73;11.20;;;;;;;;;;5039656;28;20426;-53
2023/12/01 00:03:48;;;;;;;15.30;11.07;;;;;;;;;;5042879;28;20714;-55
2023/12/01 00:06:14;;;;;;;12.43;10.17;;;;;;;;;;5042535;28;20500;-54
2023/12/01 00:08:40;;;;;;;15.33;11.10;;;;;;;;;;5042591;28;20442;-56
2023/12/01 00:11:06;;;;;;;14.63;10.80;;;;;;;;;;5039413;28;20193;-56
2023/12/01 00:13:32;;;;;;;14.40;10.70;;;;;;;;;;5040999;28;20822;-56
2023/12/01 00:15:58;;;;;;;13.93;10.70;;;;;;;;;;5039185;28;20434;-56
2023/12/01 00:18:24;;;;;;;13.40;10.03;;;;;;;;;;5040923;28;20435;-57
2023/12/01 00:20:52;;;;;;;13.67;11.20;;;;;;;;;;5041007;28;20438;-55
2023/12/01 00:23:19;;;;;;;13.20;10.20;;;;;;;;;;5042506;28;20681;-56
2023/12/01 00:25:45;;;;;;;12.03;9.67;;;;;;;;;;5039156;28;20430;-56
2023/12/01 00:28:11;;;;;;;12.73;9.80;;;;;;;;;;5042394;28;20865;-56
2023/12/01 00:30:37;;;;;;;12.53;9.97;;;;;;;;;;5040877;28;20442;-56
2023/12/01 00:33:03;;;;;;;12.33;10.23;;;;;;;;;;5040400;28;20230;-56
2023/12/01 00:35:30;;;;;;;13.30;10.07;;;;;;;;;;5040678;28;20479;-56
2023/12/01 00:37:58;;;;;;;11.57;9.90;;;;;;;;;;5040641;28;20449;-56
2023/12/01 00:40:24;;;;;;;13.40;10.90;;;;;;;;;;5038946;28;20807;-56
2023/12/01 00:42:50;;;;;;;12.27;10.77;;;;;;;;;;5038860;28;20435;-55
2023/12/01 00:45:16;;;;;;;13.77;10.93;;;;;;;;;;5040418;28;20565;-55
2023/12/01 00:47:42;;;;;;;12.03;9.77;;;;;;;;;;5040280;28;20519;-56
2023/12/01 00:50:09;;;;;;;12.70;9.73;;;;;;;;;;5038488;28;20667;-56
2023/12/01 00:52:35;;;;;;;10.83;9.60;;;;;;;;;;5038610;28;20430;-55
2023/12/01 00:55:03;;;;;;;12.03;9.37;;;;;;;;;;5038428;28;20479;-55
2023/12/01 00:57:29;;;;;;;13.57;10.20;;;;;;;;;;5038574;28;20451;-57
2023/12/01 00:59:55;;;;;;;12.50;10.50;;;;;;;;;;5040174;28;20423;-57
2023/12/01 01:02:21;;;;;;;13.33;10.67;;;;;;;;;;5047418;28;20635;-57
2023/12/01 01:04:47;;;;;;;12.13;10.13;;;;;;;;;;5052005;28;20196;-57
2023/12/01 01:07:13;;;;;;;13.10;9.70;;;;;;;;;;5052079;28;20497;-57
2023/12/01 01:09:39;;;;;;;11.73;9.87;;;;;;;;;;5052246;28;20538;-56
2023/12/01 01:12:07;;;;;;;11.87;10.50;;;;;;;;;;5051968;28;20283;-56
2023/12/01 01:14:33;;;;;;;11.73;9.87;;;;;;;;;;5051927;28;20248;-56
2023/12/01 01:16:59;;;;;;;12.17;9.80;;;;;;;;;;5051851;28;20504;-56
2023/12/01 01:19:25;;;;;;;11.43;10.07;;;;;;;;;;5050999;28;20191;-56
2023/12/01 01:21:51;;;;;;;12.43;10.47;;;;;;;;;;5051846;28;20199;-56
2023/12/01 01:24:17;;;;;;;11.53;9.13;;;;;;;;;;5051791;28;20196;-56
2023/12/01 01:26:43;;;;;;;12.37;10.70;;;;;;;;;;5051950;28;20574;-56
2023/12/01 01:29:10;;;;;;;12.90;10.33;;;;;;;;;;5051765;28;20200;-56
2023/12/01 01:31:36;;;;;;;11.90;9.27;;;;;;;;;;5051714;28;20443;-56
2023/12/01 01:34:02;;;;;;;12.23;9.80;;;;;;;;;;5051487;28;20528;-56
2023/12/01 01:36:28;;;;;;;12.30;10.00;;;;;;;;;;5051809;28;20546;-56
2023/12/01 01:38:54;;;;;;;12.20;10.10;;;;;;;;;;5051619;28;20442;-57
2023/12/01 01:41:21;;;;;;;12.37;10.53;;;;;;;;;;5051594;28;20208;-57
2023/12/01 01:43:47;;;;;;;11.63;9.73;;;;;;;;;;5051620;28;20208;-56
2023/12/01 01:46:14;;;;;;;13.03;10.10;;;;;;;;;;5051616;28;20526;-57
2023/12/01 01:48:42;;;;;;;12.30;10.13;;;;;;;;;;5051729;28;20786;-57
2023/12/01 01:51:12;;;;;;;11.97;9.97;;;;;;;;;;5051587;28;20521;-57
2023/12/01 01:53:38;;;;;;;11.83;9.60;;;;;;;;;;5051597;28;20470;-57
2023/12/01 01:56:05;;;;;;;12.10;10.30;;;;;;;;;;5051477;28;20434;-56
2023/12/01 01:58:31;;;;;;;12.90;9.73;;;;;;;;;;5051777;28;20482;-55
2023/12/01 02:00:57;;;;;;;11.20;9.40;;;;;;;;;;5051415;28;20457;-55
2023/12/01 02:03:24;;;;;;;11.63;9.30;;;;;;;;;;5051470;28;20534;-55
2023/12/01 02:05:50;;;;;;;12.73;9.80;;;;;;;;;;5051544;28;20273;-55
2023/12/01 02:08:23;;;;;;;12.47;10.53;;;;;;;;;;5051415;28;20461;-56
2023/12/01 02:10:49;;;;;;;12.17;10.10;;;;;;;;;;5051539;28;20430;-56
2023/12/01 02:13:15;;;;;;;11.73;9.10;;;;;;;;;;5051266;28;20791;-55
2023/12/01 02:15:42;;;;;;;10.97;9.47;;;;;;;;;;5051528;28;20434;-56
2023/12/01 02:18:18;;;;;;;10.70;9.17;;;;;;;;;;5051371;28;20440;-56
2023/12/01 02:20:45;;;;;;;11.57;10.10;;;;;;;;;;5051502;28;20438;-55
2023/12/01 02:23:13;;;;;;;11.63;9.80;;;;;;;;;;5051506;28;20442;-57
2023/12/01 02:25:39;;;;;;;10.63;9.47;;;;;;;;;;5051577;28;20439;-56
2023/12/01 02:28:05;;;;;;;12.43;9.27;;;;;;;;;;5051344;28;20443;-56
2023/12/01 02:30:31;;;;;;;10.73;9.57;;;;;;;;;;5052892;28;20262;-56
2023/12/01 02:32:57;;;;;;;11.80;10.07;;;;;;;;;;5054931;28;20247;-56
2023/12/01 02:35:24;;;;;;;11.10;9.07;;;;;;;;;;5054843;28;20517;-56
2023/12/01 02:37:51;;;;;;;11.17;9.30;;;;;;;;;;5054837;28;20231;-56
2023/12/01 02:40:18;;;;;;;11.20;9.20;;;;;;;;;;5054774;28;20477;-56
2023/12/01 02:42:45;;;;;;;11.37;9.00;;;;;;;;;;5054934;28;20196;-56
2023/12/01 02:45:11;;;;;;;12.10;10.33;;;;;;;;;;5054651;28;21009;-56
2023/12/01 02:47:37;;;;;;;11.57;9.37;;;;;;;;;;5054739;28;20439;-56
2023/12/01 02:50:03;;;;;;;11.63;10.13;;;;;;;;;;5054575;28;20431;-56
2023/12/01 02:52:29;;;;;;;12.37;9.83;;;;;;;;;;5054697;28;20431;-56
2023/12/01 02:54:55;;;;;;;12.57;10.27;;;;;;;;;;5054344;28;20493;-56
2023/12/01 02:57:23;;;;;;;13.73;10.60;;;;;;;;;;5054676;28;20283;-57
2023/12/01 02:59:49;;;;;;;12.30;9.97;;;;;;;;;;5054581;28;20204;-57
2023/12/01 03:02:15;;;;;;;12.57;9.83;;;;;;;;;;5054305;28;20441;-56
2023/12/01 03:04:41;;;;;;;12.20;10.03;;;;;;;;;;5054480;28;20208;-56
2023/12/01 03:07:07;;;;;;;12.50;10.30;;;;;;;;;;5054355;28;20878;-57
2023/12/01 03:09:33;;;;;;;13.10;11.37;;;;;;;;;;5054537;28;20200;-57
2023/12/01 03:11:59;;;;;;;12.00;9.87;;;;;;;;;;5054186;28;20250;-57
2023/12/01 03:14:27;;;;;;;11.20;9.07;;;;;;;;;;5054411;28;20228;-56
2023/12/01 03:16:56;;;;;;;11.70;9.73;;;;;;;;;;5054152;28;20450;-56
2023/12/01 03:19:22;;;;;;;12.40;9.60;;;;;;;;;;5054115;28;20443;-56
2023/12/01 03:21:48;;;;;;;12.33;9.70;;;;;;;;;;5054049;28;20525;-56
2023/12/01 03:24:14;;;;;;;11.80;10.03;;;;;;;;;;5054004;28;20478;-56
2023/12/01 03:26:40;;;;;;;11.80;10.33;;;;;;;;;;5053968;28;20459;-57
2023/12/01 03:29:08;;;;;;;12.23;10.07;;;;;;;;;;5053901;28;20492;-57
2023/12/01 03:31:35;;;;;;;13.03;9.93;;;;;;;;;;5053848;28;20430;-57
2023/12/01 03:34:03;;;;;;;11.07;9.83;;;;;;;;;;5053671;28;20477;-56
2023/12/01 03:36:29;;;;;;;10.33;8.97;;;;;;;;;;5054037;28;20431;-56
2023/12/01 03:38:55;;;;;;;11.63;9.47;;;;;;;;;;5053672;28;20438;-56
2023/12/01 03:41:21;;;;;;;11.93;9.80;;;;;;;;;;5052873;28;20677;-57
2023/12/01 03:43:47;;;;;;;10.80;9.30;;;;;;;;;;5053255;28;20208;-56
2023/12/01 03:46:13;;;;;;;11.13;9.27;;;;;;;;;;5053677;28;20235;-56
2023/12/01 03:48:40;;;;;;;12.63;10.40;;;;;;;;;;5053479;28;20596;-57
2023/12/01 03:51:09;;;;;;;14.33;10.17;;;;;;;;;;5053484;28;20211;-56
2023/12/01 03:53:35;;;;;;;13.60;10.03;;;;;;;;;;5053376;28;20439;-57
2023/12/01 03:56:01;;;;;;;10.77;8.70;;;;;;;;;;5053476;28;20439;-55
2023/12/01 03:58:27;;;;;;;12.10;9.60;;;;;;;;;;5053439;28;20196;-58
2023/12/01 04:00:53;;;;;;;11.50;9.90;;;;;;;;;;5053330;28;20200;-55
2023/12/01 04:03:20;;;;;;;11.63;9.10;;;;;;;;;;5053175;28;20858;-56
2023/12/01 04:05:47;;;;;;;11.37;9.57;;;;;;;;;;5053270;28;20191;-56
2023/12/01 04:08:13;;;;;;;10.87;9.23;;;;;;;;;;5053154;28;20447;-56
2023/12/01 04:10:40;;;;;;;11.00;9.67;;;;;;;;;;5053101;28;20995;-56
2023/12/01 04:13:07;;;;;;;11.40;10.00;;;;;;;;;;5053016;28;20363;-56
2023/12/01 04:15:33;;;;;;;14.07;10.57;;;;;;;;;;5052827;28;20498;-56
2023/12/01 04:18:06;;;;;;;10.83;9.50;;;;;;;;;;5052835;28;20929;-56
2023/12/01 04:20:35;;;;;;;12.90;9.83;;;;;;;;;;5053004;28;20515;-56
2023/12/01 04:23:03;;;;;;;13.33;9.83;;;;;;;;;;5052886;28;20426;-56
2023/12/01 04:25:30;;;;;;;17.90;10.13;;;;;;;;;;5052912;28;20535;-56
2023/12/01 04:27:56;;;;;;;12.23;10.23;;;;;;;;;;5052750;28;20457;-58
2023/12/01 04:30:23;;;;;;;11.87;9.67;;;;;;;;;;5052575;28;20924;-56
2023/12/01 04:32:52;;;;;;;13.53;10.50;;;;;;;;;;5052482;28;20447;-56
2023/12/01 04:35:19;;;;;;;11.97;10.23;;;;;;;;;;5052421;28;20478;-55
2023/12/01 04:37:45;;;;;;;13.13;9.47;;;;;;;;;;5052652;28;20441;-56
2023/12/01 04:40:16;;;;;;;12.30;10.20;;;;;;;;;;5052593;28;20438;-56
2023/12/01 04:42:43;;;;;;;12.63;10.23;;;;;;;;;;5052529;28;21300;-56
2023/12/01 04:45:11;;;;;;;11.57;9.47;;;;;;;;;;5052204;28;20471;-56
2023/12/01 04:47:38;;;;;;;13.10;10.50;;;;;;;;;;5052479;28;20459;-56
2023/12/01 04:50:12;;;;;;;12.00;10.00;;;;;;;;;;5052445;28;20442;-56
2023/12/01 04:52:38;;;;;;;12.40;10.30;;;;;;;;;;5052203;28;20933;-56
2023/12/01 04:55:04;;;;;;;11.80;9.60;;;;;;;;;;5052289;28;20486;-56
2023/12/01 04:57:33;;;;;;;12.10;10.17;;;;;;;;;;5052357;28;20438;-56
2023/12/01 04:59:59;;;;;;;11.43;10.07;;;;;;;;;;5052171;28;20431;-56
2023/12/01 05:02:25;;;;;;;12.53;9.73;;;;;;;;;;5052137;28;20508;-56
2023/12/01 05:04:51;;;;;;;14.07;9.87;;;;;;;;;;5052256;28;20192;-56
2023/12/01 05:07:17;;;;;;;12.63;9.57;;;;;;;;;;5052172;28;20203;-57
2023/12/01 05:09:43;;;;;;;15.30;10.37;;;;;;;;;;5052358;28;20435;-56
2023/12/01 05:12:09;;;;;;;13.53;9.93;;;;;;;;;;5052021;28;20228;-55
2023/12/01 05:14:36;;;;;;;12.27;10.07;;;;;;;;;;5052249;28;20232;-55
2023/12/01 05:17:02;;;;;;;13.23;10.43;;;;;;;;;;5052209;28;20298;-56
2023/12/01 05:19:28;;;;;;;13.53;10.70;;;;;;;;;;5052054;28;20933;-55
2023/12/01 05:21:54;;;;;;;12.33;9.37;;;;;;;;;;5051903;28;20438;-56
2023/12/01 05:24:20;;;;;;;11.40;10.17;;;;;;;;;;5051855;28;20343;-56
2023/12/01 05:26:46;;;;;;;13.33;10.40;;;;;;;;;;5052002;28;20212;-56
2023/12/01 05:29:13;;;;;;;11.47;9.93;;;;;;;;;;5051753;28;20434;-56
2023/12/01 05:31:40;;;;;;;13.20;10.80;;;;;;;;;;5051691;28;20232;-55
2023/12/01 05:34:06;;;;;;;12.70;10.10;;;;;;;;;;5051497;28;20470;-55
2023/12/01 05:36:32;;;;;;;14.90;11.90;;;;;;;;;;5051822;28;20484;-56
2023/12/01 05:38:58;;;;;;;13.17;10.37;;;;;;;;;;5051776;28;20606;-56
2023/12/01 05:41:24;;;;;;;12.27;10.63;;;;;;;;;;5051732;28;20203;-56
2023/12/01 05:43:50;;;;;;;15.57;11.00;;;;;;;;;;5051355;28;20236;-56
2023/12/01 05:46:16;;;;;;;14.43;11.37;;;;;;;;;;5051421;28;20582;-56
2023/12/01 05:48:44;;;;;;;15.53;11.60;;;;;;;;;;5051643;28;20208;-56
2023/12/01 05:51:10;;;;;;;13.23;10.77;;;;;;;;;;5051457;28;20449;-56
2023/12/01 05:53:36;;;;;;;14.17;11.40;;;;;;;;;;5051423;28;20443;-56
2023/12/01 05:56:02;;;;;;;15.50;11.97;;;;;;;;;;5051537;28;20250;-56
2023/12/01 05:58:29;;;;;;;13.53;10.90;;;;;;;;;;5051739;28;20200;-56
2023/12/01 06:00:55;;;;;;;15.50;11.60;;;;;;;;;;5051484;28;20433;-56
2023/12/01 06:03:21;;;;;;;14.47;11.10;;;;;;;;;;5051533;28;20469;-56
2023/12/01 06:05:48;;;;;;;14.67;11.20;;;;;;;;;;5053579;28;20933;-55
2023/12/01 06:08:15;;;;;;;14.10;10.90;;;;;;;;;;5055233;28;20643;-56
2023/12/01 06:10:41;;;;;;;14.00;11.37;;;;;;;;;;5055222;28;20442;-56
2023/12/01 06:13:07;;;;;;;15.57;11.47;;;;;;;;;;5055138;28;20488;-56
2023/12/01 06:15:33;;;;;;;15.63;11.57;;;;;;;;;;5054917;28;20710;-57
2023/12/01 06:17:59;;;;;;;14.53;11.03;;;;;;;;;;5054646;28;20465;-57
2023/12/01 06:20:26;;;;;;;13.33;9.83;;;;;;;;;;5054969;28;20282;-56
2023/12/01 06:22:56;;;;;;;11.17;9.53;;;;;;;;;;5054883;28;20776;-56
2023/12/01 06:25:27;;;;;;;15.10;10.33;;;;;;;;;;5054930;28;20439;-56
2023/12/01 06:27:53;;;;;;;13.43;9.87;;;;;;;;;;5055065;28;20434;-56
2023/12/01 06:30:19;;;;;;;11.00;8.93;;;;;;;;;;5054969;28;20445;-55
2023/12/01 06:32:46;;;;;;;14.73;10.17;;;;;;;;;;5054818;28;20478;-56
2023/12/01 06:35:13;;;;;;;12.60;10.10;;;;;;;;;;5054642;28;20577;-56
2023/12/01 06:37:39;;;;;;;12.67;8.63;;;;;;;;;;5054810;28;20462;-56
2023/12/01 06:40:15;;;;;;;13.17;9.33;;;;;;;;;;5054733;28;20446;-56
2023/12/01 06:42:42;;;;;;;14.20;10.57;;;;;;;;;;5054602;28;20439;-56
2023/12/01 06:45:10;;;;;;;12.20;10.03;;;;;;;;;;5054510;28;20533;-55
2023/12/01 06:47:36;;;;;;;13.77;10.40;;;;;;;;;;5052655;28;20548;-55
2023/12/01 06:50:02;;;;;;;17.03;12.13;;;;;;;;;;5054280;28;20454;-56
2023/12/01 06:52:28;;;;;;;14.73;11.13;;;;;;;;;;5054197;28;20442;-56
2023/12/01 06:54:54;;;;;;;14.33;10.70;;;;;;;;;;5053988;28;20485;-56
2023/12/01 06:57:22;;;;;;;15.87;11.00;;;;;;;;;;5053847;28;20988;-55
2023/12/01 06:59:48;;;;;;;15.07;10.47;;;;;;;;;;5053987;28;20592;-54
2023/12/01 07:02:17;;;;;;;15.17;11.50;;;;;;;;;;5053760;28;20955;-54
2023/12/01 07:04:43;;;;;;;14.77;11.00;;;;;;;;;;5053891;28;20193;-54
2023/12/01 07:07:09;;;;;;;16.60;11.00;;;;;;;;;;5040112;28;20803;-54
2023/12/01 07:09:35;;;;;;;14.57;11.17;;;;;;;;;;5040246;28;20228;-54
2023/12/01 07:12:04;;;;;;;14.83;11.10;;;;;;;;;;5040147;28;20732;-55
2023/12/01 07:14:33;;;;;;;13.90;10.97;;;;;;;;;;5040283;28;20255;-55
2023/12/01 07:16:59;;;;;;;14.67;11.07;;;;;;;;;;5039855;28;20445;-54
2023/12/01 07:19:25;;;;;;;14.10;11.17;;;;;;;;;;5039970;28;20438;-54
2023/12/01 07:21:51;;;;;;;14.37;10.27;;;;;;;;;;5039979;28;20227;-55
2023/12/01 07:24:18;;;;;;;15.00;10.83;;;;;;;;;;5039817;28;20204;-55
2023/12/01 07:26:44;;;;;;;14.53;11.03;;;;;;;;;;5041241;28;20200;-56
2023/12/01 07:29:10;;;;;;;13.50;10.23;;;;;;;;;;5039615;28;20973;-55
2023/12/01 07:31:37;;;;;;;13.13;10.10;;;;;;;;;;5041409;28;20443;-55
2023/12/01 07:34:03;;;;;;;14.23;10.50;;;;;;;;;;5039175;28;20251;-55
2023/12/01 07:36:29;;;;;;;13.87;10.40;;;;;;;;;;5040044;28;20791;-55
2023/12/01 07:38:55;;;;;;;13.80;10.77;;;;;;;;;;5040075;28;20980;-55
2023/12/01 07:41:21;;;;;;;13.67;10.87;;;;;;;;;;5039943;28;20192;-55
2023/12/01 07:43:47;;;;;;;13.13;10.30;;;;;;;;;;5041606;28;20451;-55
2023/12/01 07:46:13;;;;;;;15.27;10.53;;;;;;;;;;5039798;28;20220;-56
2023/12/01 07:48:41;;;;;;;16.53;11.53;;;;;;;;;;5039832;28;20663;-55
2023/12/01 07:51:07;;;;;;;15.83;11.37;;;;;;;;;;5041312;28;20561;-56
2023/12/01 07:53:33;;;;;;;12.77;10.00;;;;;;;;;;5039761;28;20447;-56
2023/12/01 07:55:59;;;;;;;15.33;11.23;;;;;;;;;;5039464;28;20469;-56
2023/12/01 07:58:25;;;;;;;16.17;10.37;;;;;;;;;;5037796;28;20637;-56
2023/12/01 08:00:52;;;;;;;13.83;10.20;;;;;;;;;;5039512;28;20489;-56
2023/12/01 08:03:18;;;;;;;15.20;11.13;;;;;;;;;;5041184;28;20526;-56
2023/12/01 08:05:46;;;;;;;15.67;11.20;;;;;;;;;;5041352;28;20437;-54
2023/12/01 08:08:14;;;;;;;13.30;10.80;;;;;;;;;;5039685;28;20435;-54
2023/12/01 08:10:41;;;;;;;14.67;10.77;;;;;;;;;;5039423;28;20438;-54
2023/12/01 08:13:08;;;;;;;13.77;10.63;;;;;;;;;;5039142;28;20925;-55
2023/12/01 08:15:34;;;;;;;12.40;9.73;;;;;;;;;;5040985;28;20553;-55
2023/12/01 08:18:00;;;;;;;12.17;9.47;;;;;;;;;;5039172;28;20446;-55
2023/12/01 08:20:29;;;;;;;13.63;9.87;;;;;;;;;;5038937;28;20466;-55
2023/12/01 08:22:57;;;;;;;11.60;9.23;;;;;;;;;;5039187;28;20435;-55
2023/12/01 08:25:23;;;;;;;12.50;9.53;;;;;;;;;;5044227;28;20450;-55
2023/12/01 08:27:51;;;;;;;12.23;9.33;;;;;;;;;;5051746;28;20435;-54
2023/12/01 08:30:18;;;;;;;15.13;10.93;;;;;;;;;;5052542;28;20200;-54
2023/12/01 08:32:44;;;;;;;14.93;11.00;;;;;;;;;;5052048;28;20534;-55
2023/12/01 08:35:10;;;;;;;14.17;11.27;;;;;;;;;;5052292;28;20501;-54
2023/12/01 08:37:36;;;;;;;12.90;10.13;;;;;;;;;;5052507;28;20196;-56
2023/12/01 08:40:05;;;;;;;13.43;10.37;;;;;;;;;;5052158;28;20188;-55
2023/12/01 08:42:31;;;;;;;16.20;12.00;;;;;;;;;;5052164;28;20295;-55
2023/12/01 08:44:57;;;;;;;17.30;11.83;;;;;;;;;;5050388;28;20466;-55
2023/12/01 08:47:23;;;;;;;17.30;12.50;;;;;;;;;;5050510;28;20847;-56
2023/12/01 08:49:49;;;;;;;17.47;12.43;;;;;;;;;;5052139;28;20231;-56
2023/12/01 08:52:15;;;;;;;16.23;12.17;;;;;;;;;;5052087;28;20214;-56
2023/12/01 08:54:41;;;;;;;16.80;12.03;;;;;;;;;;5052184;28;20482;-56
2023/12/01 08:57:09;;;;;;;15.57;11.97;;;;;;;;;;5052090;28;20437;-55
2023/12/01 08:59:35;;;;;;;15.17;12.10;;;;;;;;;;5052326;28;20443;-55
2023/12/01 09:02:01;;;;;;;19.60;14.37;;;;;;;;;;5050320;28;20446;-55
2023/12/01 09:04:27;;;;;;;17.30;12.03;;;;;;;;;;5048452;28;20679;-55
2023/12/01 09:06:53;;;;;;;18.00;12.90;;;;;;;;;;5045080;28;20200;-55
2023/12/01 09:09:19;;;;;;;16.57;12.33;;;;;;;;;;5043386;28;20196;-55
2023/12/01 09:11:45;;;;;;;17.03;11.93;;;;;;;;;;5045254;28;20219;-55
2023/12/01 09:14:12;;;;;;;14.60;11.13;;;;;;;;;;5044852;28;20941;-55
2023/12/01 09:16:38;;;;;;;14.90;12.13;;;;;;;;;;5046775;28;20222;-55
2023/12/01 09:19:04;;;;;;;15.07;12.20;;;;;;;;;;5043083;28;20944;-55
2023/12/01 09:21:30;;;;;;;15.00;11.57;;;;;;;;;;5039918;28;20219;-55
2023/12/01 09:23:56;;;;;;;14.70;12.07;;;;;;;;;;5041190;28;20936;-55
2023/12/01 09:26:22;;;;;;;14.77;11.93;;;;;;;;;;5037819;28;20203;-55
2023/12/01 09:28:50;;;;;;;16.13;11.70;;;;;;;;;;5039662;28;20196;-55
2023/12/01 09:31:18;;;;;;;17.63;11.73;;;;;;;;;;5039410;28;20435;-55
2023/12/01 09:33:44;;;;;;;16.50;12.30;;;;;;;;;;5041461;28;20435;-56
2023/12/01 09:36:11;;;;;;;15.63;11.93;;;;;;;;;;5041497;28;21105;-55
2023/12/01 09:38:37;;;;;;;14.03;10.87;;;;;;;;;;5043248;28;20198;-55
2023/12/01 09:41:03;;;;;;;16.27;11.80;;;;;;;;;;5043879;28;20439;-55
2023/12/01 09:43:31;;;;;;;13.73;11.13;;;;;;;;;;5041038;28;20254;-56
2023/12/01 09:45:57;;;;;;;14.80;11.40;;;;;;;;;;5042210;28;20989;-56
2023/12/01 09:48:25;;;;;;;14.80;11.63;;;;;;;;;;5041403;28;20492;-56
2023/12/01 09:50:51;;;;;;;14.57;11.43;;;;;;;;;;5043223;28;20500;-56
2023/12/01 09:53:17;;;;;;;16.33;11.93;;;;;;;;;;5044712;28;20434;-56
2023/12/01 09:55:43;;;;;;;15.90;11.97;;;;;;;;;;5043330;28;20525;-55
2023/12/01 09:58:10;;;;;;;13.40;10.67;;;;;;;;;;5041636;28;20439;-56
2023/12/01 10:00:36;;;;;;;14.77;11.50;;;;;;;;;;5045014;28;20890;-55
2023/12/01 10:03:02;;;;;;;14.43;11.73;;;;;;;;;;5039848;28;20523;-56
2023/12/01 10:05:34;;;;;;;13.20;10.50;;;;;;;;;;5043162;28;20192;-55
2023/12/01 10:08:00;;;;;;;15.03;11.20;;;;;;;;;;5041418;28;20796;-55
2023/12/01 10:10:27;;;;;;;14.47;11.10;;;;;;;;;;5041373;28;20442;-56
2023/12/01 10:12:56;;;;;;;14.20;11.27;;;;;;;;;;5042992;28;20522;-55
2023/12/01 10:15:24;;;;;;;15.13;11.10;;;;;;;;;;5041199;28;20482;-55
2023/12/01 10:17:50;;;;;;;15.53;11.87;;;;;;;;;;5041100;28;20442;-55
2023/12/01 10:20:20;;;;;;;15.13;12.03;;;;;;;;;;5039421;28;20443;-55
2023/12/01 10:22:51;;;;;;;15.90;13.07;;;;;;;;;;5042759;28;20459;-55
2023/12/01 10:25:17;;;;;;;16.77;13.10;;;;;;;;;;5042624;28;20543;-55
2023/12/01 10:27:53;;;;;;;16.03;11.87;;;;;;;;;;5041159;28;20455;-55
2023/12/01 10:30:20;;;;;;;15.70;12.63;;;;;;;;;;5041873;28;20929;-56
2023/12/01 10:32:47;;;;;;;15.27;12.40;;;;;;;;;;5042567;28;20481;-56
2023/12/01 10:35:13;;;;;;;17.00;13.23;;;;;;;;;;5040695;28;20527;-54
2023/12/01 10:37:39;;;;;;;15.00;12.60;;;;;;;;;;5040801;28;20427;-57
2023/12/01 10:40:08;;;;;;;15.07;11.93;;;;;;;;;;5040675;28;20913;-57
2023/12/01 10:42:34;;;;;;;16.30;12.00;;;;;;;;;;5040790;28;20438;-57
2023/12/01 10:45:01;;;;;;;15.73;12.27;;;;;;;;;;5042406;28;20466;-54
2023/12/01 10:47:27;;;;;;;16.60;12.27;;;;;;;;;;5040724;28;20504;-55
2023/12/01 10:49:55;;;;;;;16.33;12.43;;;;;;;;;;5040681;28;20501;-54
2023/12/01 10:52:21;;;;;;;16.13;12.73;;;;;;;;;;5041678;28;20478;-55
2023/12/01 10:54:47;;;;;;;16.33;12.23;;;;;;;;;;5040526;28;20513;-54
2023/12/01 10:57:18;;;;;;;14.90;12.30;;;;;;;;;;5040411;28;20435;-55
2023/12/01 10:59:46;;;;;;;15.73;12.00;;;;;;;;;;5040582;28;20466;-55
2023/12/01 11:02:14;;;;;;;16.97;12.67;;;;;;;;;;5040244;28;20507;-55
2023/12/01 11:04:44;;;;;;;14.87;12.33;;;;;;;;;;5042117;28;20613;-55
2023/12/01 11:07:20;;;;;;;15.23;12.13;;;;;;;;;;5040089;28;20463;-55
2023/12/01 11:09:53;;;;;;;14.50;12.17;;;;;;;;;;5040311;28;20480;-54
2023/12/01 11:12:25;;;;;;;14.20;11.60;;;;;;;;;;5040332;28;20446;-55
2023/12/01 11:14:51;;;;;;;14.70;12.53;;;;;;;;;;5040272;28;20482;-55
2023/12/01 11:17:18;;;;;;;15.43;11.57;;;;;;;;;;5040208;28;20953;-57
2023/12/01 11:19:44;;;;;;;16.07;12.40;;;;;;;;;;5040276;28;20441;-55
2023/12/01 11:22:27;;;;;;;15.80;12.80;;;;;;;;;;5040152;28;20510;-55
2023/12/01 11:24:53;;;;;;;16.57;12.20;;;;;;;;;;5042033;28;20450;-55
2023/12/01 11:27:19;;;;;;;14.60;11.70;;;;;;;;;;5040039;28;20517;-55
2023/12/01 11:30:12;;;;;;;17.03;12.67;;;;;;;;;;5041908;28;20439;-55
2023/12/01 11:32:39;;;;;;;15.87;12.50;;;;;;;;;;5041654;28;20550;-55
2023/12/01 11:35:08;;;;;;;16.30;12.63;;;;;;;;;;5040241;28;20503;-55
2023/12/01 11:38:03;;;;;;;14.97;11.90;;;;;;;;;;5039901;28;20442;-55
2023/12/01 11:40:38;;;;;;;14.77;11.80;;;;;;;;;;5039592;28;20438;-55
2023/12/01 11:43:05;;;;;;;13.87;11.20;;;;;;;;;;5041546;28;20503;-55
2023/12/01 11:45:41;;;;;;;16.23;12.47;;;;;;;;;;5041304;28;21001;-55
2023/12/01 11:48:09;;;;;;;16.10;11.93;;;;;;;;;;5041486;28;20838;-55
2023/12/01 11:50:37;;;;;;;16.37;12.60;;;;;;;;;;5039825;28;20467;-55
2023/12/01 11:53:03;;;;;;;18.57;13.70;;;;;;;;;;5039726;28;20533;-55
2023/12/01 11:55:29;;;;;;;17.83;13.53;;;;;;;;;;5039570;28;20569;-55
2023/12/01 11:57:55;;;;;;;16.30;12.93;;;;;;;;;;5039758;28;20230;-55
2023/12/01 12:00:21;;;;;;;122.00;68.13;;;;;;;;;;5039450;28;20443;-55
2023/12/01 12:02:49;;;;;;;218.60;125.40;;;;;;;;;;5038549;28;20426;-55
2023/12/01 12:05:15;;;;;;;63.57;49.20;;;;;;;;;;5041094;28;20522;-55
2023/12/01 12:07:41;;;;;;;21.20;18.10;;;;;;;;;;5039555;28;20431;-55
2023/12/01 12:10:08;;;;;;;17.73;13.33;;;;;;;;;;5039328;28;20431;-56
2023/12/01 12:12:34;;;;;;;21.60;17.40;;;;;;;;;;5039340;28;20832;-55
2023/12/01 12:15:08;;;;;;;21.13;16.87;;;;;;;;;;5039274;28;20488;-56
2023/12/01 12:17:34;;;;;;;22.93;19.10;;;;;;;;;;5039119;28;20219;-54
2023/12/01 12:20:01;;;;;;;18.20;13.93;;;;;;;;;;5040891;28;20443;-61
2023/12/01 12:22:27;;;;;;;16.83;13.40;;;;;;;;;;5039235;28;20482;-56
2023/12/01 12:24:53;;;;;;;17.33;13.47;;;;;;;;;;5041547;28;20450;-57
2023/12/01 12:27:19;;;;;;;16.57;13.17;;;;;;;;;;5050793;28;20492;-57
2023/12/01 12:29:45;;;;;;;19.00;13.73;;;;;;;;;;5052614;28;20196;-57
2023/12/01 12:32:12;;;;;;;15.40;12.00;;;;;;;;;;5051962;28;20980;-57
2023/12/01 12:34:38;;;;;;;16.17;12.87;;;;;;;;;;5052678;28;20595;-57
2023/12/01 12:37:06;;;;;;;15.87;12.77;;;;;;;;;;5052327;28;20430;-57
2023/12/01 12:39:33;;;;;;;15.93;13.03;;;;;;;;;;5052200;28;20894;-56
2023/12/01 12:42:01;;;;;;;15.47;12.93;;;;;;;;;;5052330;28;20517;-57
2023/12/01 12:44:30;;;;;;;16.67;12.67;;;;;;;;;;5051648;28;20474;-57
2023/12/01 12:46:59;;;;;;;16.13;12.50;;;;;;;;;;5052287;28;20827;-58
2023/12/01 12:49:26;;;;;;;16.87;12.30;;;;;;;;;;5052137;28;20553;-57
2023/12/01 12:51:52;;;;;;;17.57;13.80;;;;;;;;;;5048593;28;20473;-56
2023/12/01 12:54:19;;;;;;;15.97;12.33;;;;;;;;;;5051867;28;20435;-56
2023/12/01 12:56:46;;;;;;;16.13;12.97;;;;;;;;;;5051982;28;20453;-54
2023/12/01 12:59:12;;;;;;;16.20;12.37;;;;;;;;;;5051984;28;20434;-54
2023/12/01 13:01:38;;;;;;;13.93;11.13;;;;;;;;;;5052000;28;20222;-54
2023/12/01 13:04:04;;;;;;;14.23;11.20;;;;;;;;;;5052043;28;20192;-55
2023/12/01 13:06:31;;;;;;;14.10;11.73;;;;;;;;;;5051952;28;20646;-54
2023/12/01 13:08:57;;;;;;;13.20;11.00;;;;;;;;;;5051780;28;20438;-54
2023/12/01 13:11:25;;;;;;;14.53;10.97;;;;;;;;;;5051995;28;20488;-54
2023/12/01 13:13:51;;;;;;;38.40;29.57;;;;;;;;;;5051950;28;20211;-54
2023/12/01 13:16:17;;;;;;;20.77;15.43;;;;;;;;;;5051814;28;20478;-53
2023/12/01 13:18:45;;;;;;;21.77;16.13;;;;;;;;;;5051953;28;20461;-55
2023/12/01 13:21:11;;;;;;;17.10;14.03;;;;;;;;;;5051759;28;20453;-54
2023/12/01 13:23:38;;;;;;;12.63;10.73;;;;;;;;;;5051891;28;20443;-54
2023/12/01 13:26:04;;;;;;;13.47;10.60;;;;;;;;;;5051875;28;20690;-55
2023/12/01 13:28:32;;;;;;;13.90;11.80;;;;;;;;;;5051783;28;20431;-55
2023/12/01 13:30:58;;;;;;;20.63;16.20;;;;;;;;;;5051838;28;20814;-55
2023/12/01 13:33:25;;;;;;;14.37;11.63;;;;;;;;;;5051501;28;20458;-55
2023/12/01 13:35:51;;;;;;;11.33;9.63;;;;;;;;;;5051494;28;20481;-55
2023/12/01 13:38:17;;;;;;;12.67;10.30;;;;;;;;;;5051776;28;20517;-55
2023/12/01 13:40:43;;;;;;;12.00;9.70;;;;;;;;;;5051948;28;20203;-54
2023/12/01 13:43:09;;;;;;;12.47;10.50;;;;;;;;;;5051638;28;20438;-54
2023/12/01 13:45:36;;;;;;;13.47;10.27;;;;;;;;;;5051473;28;20474;-55
2023/12/01 13:48:03;;;;;;;12.97;10.97;;;;;;;;;;5051579;28;20951;-54
2023/12/01 13:50:29;;;;;;;13.40;10.90;;;;;;;;;;5051511;28;20477;-54
2023/12/01 13:52:55;;;;;;;14.43;10.87;;;;;;;;;;5051500;28;20442;-57
2023/12/01 13:55:22;;;;;;;15.00;11.33;;;;;;;;;;5051548;28;20220;-55
2023/12/01 13:57:50;;;;;;;15.40;11.43;;;;;;;;;;5051670;28;20506;-54
2023/12/01 14:00:16;;;;;;;13.60;11.20;;;;;;;;;;5051282;28;20473;-54
2023/12/01 14:02:44;;;;;;;16.00;11.57;;;;;;;;;;5051682;28;20928;-54
2023/12/01 14:05:11;;;;;;;50.10;37.07;;;;;;;;;;5051571;28;20538;-55
2023/12/01 14:07:37;;;;;;;30.90;24.23;;;;;;;;;;5051478;28;20510;-54
2023/12/01 14:10:06;;;;;;;90.07;67.97;;;;;;;;;;5051584;28;20534;-54
2023/12/01 14:12:32;;;;;;;48.57;40.33;;;;;;;;;;5051162;28;20196;-54
2023/12/01 14:14:58;;;;;;;21.13;18.47;;;;;;;;;;5051417;28;20467;-54
2023/12/01 14:17:24;;;;;;;19.90;16.00;;;;;;;;;;5051128;28;20455;-54
2023/12/01 14:19:52;;;;;;;17.27;13.47;;;;;;;;;;5051064;28;20438;-54